createdAt,value
2019-04-07T00:02:20.902Z,8.70
2019-04-07T00:12:29.273Z,8.60
2019-04-07T00:17:32.719Z,8.50
2019-04-07T00:32:56.788Z,8.20
2019-04-07T00:38:00.605Z,8.10
2019-04-07T00:43:04.505Z,8.10
2019-04-07T00:48:09.053Z,8.00
2019-04-07T00:53:12.579Z,8.00
2019-04-07T01:08:23.710Z,7.70
2019-04-07T01:18:32.891Z,7.60
2019-04-07T01:23:36.415Z,7.50
2019-04-07T01:44:01.073Z,7.40
2019-04-07T01:49:27.146Z,7.40
2019-04-07T01:55:02.789Z,7.30
2019-04-07T02:00:26.415Z,7.20
2019-04-07T02:05:58.607Z,7.10
2019-04-07T02:11:06.171Z,7.10
2019-04-07T02:16:27.848Z,7.00
2019-04-07T02:21:54.607Z,6.90
2019-04-07T02:27:18.028Z,6.80
2019-04-07T02:37:54.597Z,6.70
2019-04-07T02:43:10.754Z,6.60
2019-04-07T02:53:48.804Z,6.50
2019-04-07T02:58:58.234Z,6.50
2019-04-07T03:09:34.975Z,6.50
2019-04-07T03:14:55.885Z,6.50
2019-04-07T03:20:23.089Z,6.50
2019-04-07T03:25:46.525Z,6.50
2019-04-07T03:31:14.743Z,6.40
2019-04-07T03:36:28.521Z,6.40
2019-04-07T03:42:04.615Z,6.30
2019-04-07T03:47:18.416Z,6.20
2019-04-07T03:52:40.508Z,6.20
2019-04-07T03:57:53.420Z,6.20
2019-04-07T04:03:05.215Z,6.20
2019-04-07T04:08:22.291Z,6.40
2019-04-07T04:13:35.738Z,6.60
2019-04-07T04:18:40.551Z,6.90
2019-04-07T04:23:45.742Z,7.00
2019-04-07T04:28:50.734Z,6.00
2019-04-07T04:33:55.655Z,7.30
2019-04-07T04:39:00.491Z,7.40
2019-04-07T04:44:04.090Z,7.60
2019-04-07T04:49:07.795Z,7.70
2019-04-07T04:54:11.135Z,7.80
2019-04-07T04:59:14.882Z,7.70
2019-04-07T05:04:19.182Z,7.80
2019-04-07T05:09:24.444Z,4.40
2019-04-07T05:14:28.464Z,8.20
2019-04-07T05:19:32.324Z,8.20
2019-04-07T05:24:36.656Z,5.30
2019-04-07T05:29:40.262Z,8.50
2019-04-07T05:34:44.437Z,8.70
2019-04-07T05:39:48.486Z,8.70
2019-04-07T05:44:52.910Z,9.00
2019-04-07T05:49:59.534Z,7.90
2019-04-07T05:55:03.042Z,9.40
2019-04-07T06:00:11.132Z,9.70
2019-04-07T06:05:16.219Z,9.90
2019-04-07T06:10:22.339Z,6.70
2019-04-07T06:15:24.823Z,10.50
2019-04-07T06:20:29.027Z,11.20
2019-04-07T06:25:36.940Z,11.10
2019-04-07T06:30:37.951Z,11.50
2019-04-07T06:35:45.075Z,11.80
2019-04-07T06:40:47.988Z,12.30
2019-04-07T06:46:00.396Z,9.90
2019-04-07T06:51:10.902Z,12.70
2019-04-07T06:56:43.594Z,13.10
2019-04-07T07:01:58.967Z,13.30
2019-04-07T07:18:02.532Z,14.10
2019-04-07T07:33:20.310Z,14.50
2019-04-07T07:38:24.565Z,14.80
2019-04-07T07:43:30.199Z,15.00
2019-04-07T07:58:41.672Z,15.50
2019-04-07T08:03:45.967Z,15.50
2019-04-07T08:08:51.480Z,15.70
2019-04-07T08:39:24.415Z,16.80
2019-04-07T08:44:26.946Z,17.00
2019-04-07T08:54:35.614Z,17.10
2019-04-07T09:04:49.752Z,17.10
2019-04-07T09:09:50.123Z,15.40
2019-04-07T09:14:53.550Z,16.90
2019-04-07T09:20:17.251Z,17.00
2019-04-07T09:25:42.002Z,17.30
2019-04-07T09:30:57.439Z,17.50
2019-04-07T09:36:21.230Z,17.70
2019-04-07T09:41:47.374Z,15.30
2019-04-07T09:47:02.485Z,14.50
2019-04-07T09:52:23.569Z,18.00
2019-04-07T09:57:47.319Z,14.20
2019-04-07T10:03:14.928Z,15.90
2019-04-07T10:08:26.018Z,17.40
2019-04-07T10:13:52.106Z,19.70
2019-04-07T10:19:15.392Z,20.60
2019-04-07T10:24:41.928Z,21.40
2019-04-07T10:30:17.167Z,20.80
2019-04-07T10:35:29.564Z,20.10
2019-04-07T10:40:51.327Z,18.90
2019-04-07T10:51:29.672Z,17.00
2019-04-07T10:56:43.867Z,16.60
2019-04-07T11:07:31.624Z,16.70
2019-04-07T11:13:00.721Z,16.90
2019-04-07T11:18:26.632Z,17.30
2019-04-07T11:39:46.817Z,19.40
2019-04-07T11:50:41.671Z,21.30
2019-04-07T11:56:11.097Z,20.80
2019-04-07T12:06:58.906Z,20.60
2019-04-07T12:12:09.679Z,20.70
2019-04-07T12:33:32.880Z,21.40
2019-04-07T12:38:58.765Z,20.40
2019-04-07T12:55:17.500Z,18.20
2019-04-07T13:00:26.298Z,18.10
2019-04-07T13:05:51.314Z,18.10
2019-04-07T13:21:40.661Z,19.50
2019-04-07T13:37:56.770Z,20.60
2019-04-07T13:48:41.592Z,20.40
2019-04-07T13:54:17.882Z,20.90
2019-04-07T13:59:47.736Z,16.00
2019-04-07T14:05:15.202Z,20.90
2019-04-07T14:10:38.305Z,19.40
2019-04-07T14:16:01.547Z,21.00
2019-04-07T14:21:14.810Z,20.90
2019-04-07T14:26:32.379Z,20.90
2019-04-07T14:31:59.306Z,20.80
2019-04-07T14:37:21.749Z,23.90
2019-04-07T14:42:31.732Z,20.40
2019-04-07T14:47:52.328Z,20.30
2019-04-07T14:53:21.102Z,21.30
2019-04-07T14:58:51.283Z,21.40
2019-04-07T15:03:55.731Z,25.90
2019-04-07T15:09:12.223Z,30.10
2019-04-07T15:14:15.699Z,31.50
2019-04-07T15:19:20.163Z,35.50
2019-04-07T15:24:23.974Z,37.80
2019-04-07T15:29:29.946Z,37.60
2019-04-07T15:34:34.257Z,36.90
2019-04-07T15:39:38.364Z,37.90
2019-04-07T15:44:42.776Z,38.90
2019-04-07T15:49:47.167Z,39.30
2019-04-07T15:54:54.321Z,39.50
2019-04-07T16:00:00.074Z,39.80
2019-04-07T16:05:03.694Z,39.60
2019-04-07T16:10:08.081Z,39.40
2019-04-07T16:15:15.816Z,37.30
2019-04-07T16:20:25.075Z,36.60
2019-04-07T16:25:28.219Z,35.10
2019-04-07T16:30:32.915Z,34.40
2019-04-07T16:35:36.547Z,33.60
2019-04-07T16:40:41.340Z,32.60
2019-04-07T16:45:46.277Z,31.50
2019-04-07T16:50:53.271Z,26.10
2019-04-07T16:55:56.108Z,23.60
2019-04-07T17:06:05.236Z,20.20
2019-04-07T17:11:09.583Z,19.10
2019-04-07T17:21:20.493Z,18.10
2019-04-07T17:26:24.714Z,17.50
2019-04-07T17:31:31.849Z,15.20
2019-04-07T17:36:39.329Z,16.20
2019-04-07T17:41:49.182Z,15.80
2019-04-07T17:47:07.210Z,15.30
2019-04-07T17:52:33.730Z,15.00
2019-04-07T17:57:46.171Z,14.70
2019-04-07T18:03:05.183Z,14.50
2019-04-07T18:08:15.671Z,14.40
2019-04-07T18:13:49.874Z,14.40
2019-04-07T18:19:09.816Z,14.50
2019-04-07T18:24:48.748Z,14.60
2019-04-07T18:30:14.501Z,14.60
2019-04-07T18:35:39.096Z,14.60
2019-04-07T18:41:11.190Z,14.60
2019-04-07T18:46:25.205Z,14.60
2019-04-07T18:51:54.310Z,14.60
2019-04-07T18:57:23.864Z,14.50
2019-04-07T19:02:55.732Z,14.40
2019-04-07T19:08:20.251Z,14.20
2019-04-07T19:13:32.463Z,12.70
2019-04-07T19:18:46.326Z,13.70
2019-04-07T19:24:04.426Z,13.50
2019-04-07T19:29:16.361Z,13.50
2019-04-07T19:34:55.185Z,13.40
2019-04-07T19:40:18.792Z,13.30
2019-04-07T19:45:48.922Z,13.10
2019-04-07T19:51:04.654Z,12.90
2019-04-07T19:56:31.456Z,12.70
2019-04-07T20:01:53.510Z,12.50
2019-04-07T20:07:15.863Z,12.30
2019-04-07T20:12:55.009Z,12.30
2019-04-07T20:18:26.947Z,12.20
2019-04-07T20:23:41.871Z,12.10
2019-04-07T20:29:04.970Z,12.10
2019-04-07T20:34:36.574Z,12.10
2019-04-07T20:39:56.243Z,12.10
2019-04-07T20:45:17.509Z,12.00
2019-04-07T20:50:37.686Z,12.00
2019-04-07T20:56:03.867Z,8.10
2019-04-07T21:01:27.652Z,9.40
2019-04-07T21:06:49.634Z,11.80
2019-04-07T21:12:01.186Z,11.70
2019-04-07T21:17:31.306Z,7.60
2019-04-07T21:22:43.301Z,11.60
2019-04-07T21:27:52.644Z,11.50
2019-04-07T21:33:17.481Z,11.40
2019-04-07T21:38:37.758Z,11.30
2019-04-07T21:43:58.216Z,11.30
2019-04-07T21:49:21.301Z,11.20
2019-04-07T21:54:44.618Z,11.00
2019-04-07T22:00:06.166Z,11.00
2019-04-07T22:05:29.212Z,11.00
2019-04-07T22:10:34.002Z,11.00
2019-04-07T22:15:45.800Z,7.10
2019-04-07T22:20:43.255Z,10.80
2019-04-07T22:25:52.157Z,10.70
2019-04-07T22:30:57.474Z,10.50
2019-04-07T22:36:01.939Z,10.50
2019-04-07T22:41:07.358Z,10.50
2019-04-07T22:46:18.442Z,10.30
2019-04-07T22:51:16.802Z,10.20
2019-04-07T22:56:20.977Z,8.90
2019-04-07T23:01:25.095Z,10.20
2019-04-07T23:06:29.242Z,10.20
2019-04-07T23:11:33.628Z,10.10
2019-04-07T23:16:38.036Z,10.20
2019-04-07T23:21:42.019Z,10.00
2019-04-07T23:26:45.665Z,8.50
2019-04-07T23:31:49.412Z,8.30
2019-04-07T23:36:52.807Z,9.80
2019-04-07T23:41:57.505Z,9.70
2019-04-07T23:47:00.953Z,9.60
2019-04-07T23:52:05.093Z,9.50
2019-04-07T23:57:08.436Z,9.50
